Audubon, Minnesota
Current Conditions -  °F | °C
As of 6:56 AM on Wednesday 22 Oct 2014 (Local Time) from KDTL Reporting Station
Scattered Clouds Scattered Clouds  
Wind Chill: 42°   Ceiling: Unl
Heat Index: 48°   Visibility: 10mi
Dew Point: 41°   Wind: 18mph
Humidity: 76%   Direction: 150°SSE
Pressure: 29.95"   Gusts: 24mph
Location:  46.86°N, 95.98°W
Report Text: KDTL 221156Z AUTO 15016G21KT 10SM SCT039 09/05 A2995 RMK AO2
Loading
Personal Weather Stations






























Interactive Weather Map
Tropical Storm Tracking
New forecast layout! Learn more

10-Day Weather Forecast

Advertisements
Track Severe Weather on mobile